Time;durP1;ratioP1;P1;durP2;ratioP2;P2;SDS_P1;SDS_P2;PMS_P1;PMS_P2;Temp;Humidity;BMP_temperature;BMP_pressure;BME280_temperature;BME280_humidity;BME280_pressure;Samples;Min_cycle;Max_cycle;Signal;HPM_P1;HPM_P2
2023/05/21 00:02:17;;;;;;;24.65;14.90;;;;;;;;;;5056049;28;20490;-55
2023/05/21 00:04:43;;;;;;;17.98;13.98;;;;;;;;;;5061105;28;20033;-55
2023/05/21 00:07:09;;;;;;;17.13;14.20;;;;;;;;;;5052010;28;20051;-55
2023/05/21 00:09:39;;;;;;;18.65;14.65;;;;;;;;;;5052522;28;20733;-55
2023/05/21 00:12:06;;;;;;;18.67;14.77;;;;;;;;;;5052176;28;20475;-56
2023/05/21 00:14:32;;;;;;;34.92;14.88;;;;;;;;;;5051550;28;20079;-55
2023/05/21 00:16:58;;;;;;;21.70;14.68;;;;;;;;;;5051932;28;20485;-56
2023/05/21 00:19:25;;;;;;;18.38;15.75;;;;;;;;;;5051517;28;20032;-54
2023/05/21 00:21:51;;;;;;;18.83;15.32;;;;;;;;;;5034230;28;20033;-55
2023/05/21 00:24:18;;;;;;;21.98;16.25;;;;;;;;;;5051633;28;20482;-55
2023/05/21 00:26:44;;;;;;;19.95;14.93;;;;;;;;;;5052386;28;20025;-55
2023/05/21 00:29:10;;;;;;;21.10;15.60;;;359.20;2329.60;;;;;;5051836;28;20028;-55
2023/05/21 00:31:35;;;;;;;17.88;15.10;;;359.20;2329.60;;;;;;5052506;28;20434;-56
2023/05/21 00:34:01;;;;;;;21.33;15.00;;;;;;;;;;5051616;28;20475;-55
2023/05/21 00:36:27;;;;;;;19.33;14.57;;;;;;;;;;5051606;28;20059;-55
2023/05/21 00:38:53;;;;;;;16.48;14.50;;;;;;;;;;5051508;28;20025;-55
2023/05/21 00:41:21;;;;;;;16.33;14.18;;;;;;;;;;5051843;28;20068;-55
2023/05/21 00:43:48;;;;;;;17.75;13.38;;;;;;;;;;5051750;28;20108;-56
2023/05/21 00:46:15;;;;;;;21.45;14.68;;;;;;;;;;5051926;28;20032;-55
2023/05/21 00:48:42;;;;;;;19.05;14.77;;;;;;;;;;5050957;28;20028;-55
2023/05/21 00:51:08;;;;;;;32.22;15.82;;;;;;;;;;5051522;28;20136;-55
2023/05/21 00:53:34;;;;;;;29.45;21.17;;;;;;;;;;5051430;28;20029;-55
2023/05/21 00:56:01;;;;;;;27.25;19.65;;;;;;;;;;5051276;28;20041;-55
2023/05/21 00:58:27;;;;;;;24.08;17.17;;;;;;;;;;5051540;28;20463;-55
2023/05/21 01:00:55;;;;;;;21.40;14.75;;;;;;;;;;5051773;28;20043;-55
2023/05/21 01:03:24;;;;;;;26.35;19.45;;;;;;;;;;5051189;28;20064;-55
2023/05/21 01:05:52;;;;;;;19.23;15.77;;;;;;;;;;5051079;28;20483;-54
2023/05/21 01:08:20;;;;;;;20.98;16.17;;;;;;;;;;5050934;28;20487;-56
2023/05/21 01:10:47;;;;;;;23.52;17.30;;;;;;;;;;5051224;28;20025;-55
2023/05/21 01:13:13;;;;;;;22.13;16.70;;;;;;;;;;5051240;28;20379;-55
2023/05/21 01:15:39;;;;;;;25.45;16.50;;;;;;;;;;5050973;28;20017;-55
2023/05/21 01:18:06;;;;;;;19.85;16.23;;;;;;;;;;5051242;28;20112;-63
2023/05/21 01:20:32;;;;;;;24.70;18.27;;;;;;;;;;5050784;28;20051;-55
2023/05/21 01:22:59;;;;;;;17.85;14.00;;;;;;;;;;5050867;28;20056;-55
2023/05/21 01:25:25;;;;;;;20.40;14.35;;;;;;;;;;5051070;28;20052;-54
2023/05/21 01:27:51;;;;;;;21.33;15.57;;;;;;;;;;5050582;28;20028;-55
2023/05/21 01:30:18;;;;;;;15.73;12.98;;;;;;;;;;5050945;28;20032;-55
2023/05/21 01:32:48;;;;;;;16.63;14.20;;;;;;;;;;5050738;28;20048;-56
2023/05/21 01:35:19;;;;;;;15.77;13.43;;;;;;;;;;5050990;28;20032;-55
2023/05/21 01:37:48;;;;;;;18.95;14.32;;;;;;;;;;5050779;28;20428;-55
2023/05/21 01:40:17;;;;;;;16.30;13.82;;;;;;;;;;5050566;28;20394;-55
2023/05/21 01:42:44;;;;;;;16.80;13.50;;;;;;;;;;5050952;28;20082;-55
2023/05/21 01:45:11;;;;;;;20.00;13.45;;;;;;;;;;5050267;28;20108;-55
2023/05/21 01:47:37;;;;;;;19.00;13.40;;;;;;;;;;5050602;28;20369;-55
2023/05/21 01:50:05;;;;;;;19.33;14.25;;;;;;;;;;5050596;28;20025;-54
2023/05/21 01:52:31;;;;;;;21.55;14.15;;;;;;;;;;5050110;28;20609;-57
2023/05/21 01:54:59;;;;;;;20.58;13.98;;;;;;;;;;5050021;28;20503;-54
2023/05/21 01:57:25;;;;;;;19.63;13.55;;;;;;;;;;5050439;28;20025;-54
2023/05/21 01:59:52;;;;;;;17.45;12.88;;;;;;;;;;5049740;28;20127;-55
2023/05/21 02:02:18;;;;;;;20.10;13.88;;;;;;;;;;5050100;28;20029;-56
2023/05/21 02:04:45;;;;;;;18.58;13.10;;;358.40;2329.60;;;;;;5049943;28;20027;-55
2023/05/21 02:07:13;;;;;;;17.42;13.98;;;333.70;2329.60;;;;;;5050276;28;20025;-55
2023/05/21 02:09:39;;;;;;;21.20;14.98;;;333.70;2329.60;;;;;;5049421;28;20109;-55
2023/05/21 02:12:05;;;;;;;19.08;14.30;;;333.60;2329.60;;;;;;5050235;28;20071;-55
2023/05/21 02:14:32;;;;;;;17.80;13.77;;;333.60;2329.60;;;;;;5049670;28;20075;-55
2023/05/21 02:16:59;;;;;;;17.92;15.35;;;333.60;2329.60;;;;;;5049661;28;20051;-55
2023/05/21 02:19:26;;;;;;;17.95;14.13;;;333.60;2329.60;;;;;;5049608;28;20041;-54
2023/05/21 02:21:52;;;;;;;18.33;14.00;;;333.60;2329.60;;;;;;5049662;28;20033;-54
2023/05/21 02:24:17;;;;;;;18.02;14.43;;;333.60;2329.60;;;;;;5048267;28;20495;-55
2023/05/21 02:26:43;;;;;;;19.17;15.57;;;333.60;2329.60;;;;;;5049647;28;20378;-54
2023/05/21 02:29:09;;;;;;;16.60;13.23;;;333.70;2329.60;;;;;;5049926;28;20155;-55
2023/05/21 02:31:35;;;;;;;18.35;14.32;;;333.70;2329.60;;;;;;5049732;28;20460;-56
2023/05/21 02:34:01;;;;;;;16.90;15.02;;;358.40;2329.60;;;;;;5049657;28;20037;-55
2023/05/21 02:36:27;;;;;;;18.20;14.63;;;333.50;2329.60;;;;;;5049720;28;20412;-55
2023/05/21 02:38:53;;;;;;;19.63;13.82;;;333.50;2329.60;;;;;;5049228;28;20155;-54
2023/05/21 02:41:20;;;;;;;18.92;14.80;;;333.40;2329.60;;;;;;5049438;28;20033;-55
2023/05/21 02:43:46;;;;;;;22.92;14.68;;;333.40;2329.60;;;;;;5049812;28;20104;-58
2023/05/21 02:46:12;;;;;;;22.90;15.25;;;333.50;2329.60;;;;;;5049258;28;20554;-55
2023/05/21 02:48:37;;;;;;;19.02;14.60;;;333.40;2329.60;;;;;;5049239;28;20112;-56
2023/05/21 02:51:03;;;;;;;17.60;13.90;;;333.40;2329.60;;;;;;5049443;28;20118;-55
2023/05/21 02:53:29;;;;;;;18.60;15.10;;;333.40;2329.60;;;;;;5048851;28;20459;-55
2023/05/21 02:55:55;;;;;;;17.83;13.60;;;333.40;2329.60;;;;;;5049489;28;20502;-55
2023/05/21 02:58:24;;;;;;;20.10;14.65;;;333.40;2329.60;;;;;;5048883;28;20538;-55
2023/05/21 03:00:50;;;;;;;21.77;14.85;;;333.30;2329.60;;;;;;5049248;28;20517;-54
2023/05/21 03:03:16;;;;;;;18.75;14.73;;;333.30;2329.60;;;;;;5049247;28;20463;-54
2023/05/21 03:05:41;;;;;;;18.70;14.73;;;333.40;2329.60;;;;;;5049478;28;20028;-55
2023/05/21 03:08:07;;;;;;;23.90;21.58;;;333.40;2329.60;;;;;;5049228;28;20048;-58
2023/05/21 03:10:32;;;;;;;17.90;14.10;;;333.40;2329.60;;;;;;5049315;28;20028;-55
2023/05/21 03:12:58;;;;;;;16.60;14.65;;;333.40;2329.60;;;;;;5048833;28;20021;-55
2023/05/21 03:15:24;;;;;;;17.70;13.27;;;333.40;2329.60;;;;;;5049446;28;20174;-55
2023/05/21 03:17:52;;;;;;;15.70;13.57;;;333.50;2329.60;;;;;;5048551;28;20025;-55
2023/05/21 03:20:18;;;;;;;15.90;12.82;;;333.30;2329.60;;;;;;5048637;28;20033;-55
2023/05/21 03:22:45;;;;;;;15.30;11.82;;;333.30;2329.60;;;;;;5048872;28;20052;-55
2023/05/21 03:25:11;;;;;;;21.02;13.60;;;333.30;2329.60;;;;;;5048857;28;20040;-55
2023/05/21 03:27:37;;;;;;;20.33;14.98;;;333.40;2329.60;;;;;;5048955;28;20052;-58
2023/05/21 03:30:04;;;;;;;18.30;14.25;;;333.40;2329.60;;;;;;5049340;28;20033;-55
2023/05/21 03:32:32;;;;;;;19.10;15.50;;;333.50;2329.60;;;;;;5048287;28;20020;-55
2023/05/21 03:34:58;;;;;;;19.60;15.15;;;333.60;2329.60;;;;;;5048754;28;20040;-55
2023/05/21 03:37:24;;;;;;;19.60;13.48;;;333.70;2329.60;;;;;;5052969;28;20017;-55
2023/05/21 03:39:50;;;;;;;18.13;12.73;;;333.70;2329.60;;;;;;5052821;28;20037;-55
2023/05/21 03:42:15;;;;;;;16.38;14.25;;;333.70;2329.60;;;;;;5052716;28;20124;-55
2023/05/21 03:44:41;;;;;;;19.35;15.65;;;333.70;2329.60;;;;;;5052799;28;20071;-55
2023/05/21 03:47:07;;;;;;;18.17;14.23;;;358.50;2329.60;;;;;;5052819;28;20558;-55
2023/05/21 03:49:32;;;;;;;28.02;25.35;;;358.70;2329.60;;;;;;5052907;28;20037;-54
2023/05/21 03:51:58;;;;;;;19.50;16.98;;;358.90;2329.60;;;;;;5052477;28;20031;-55
2023/05/21 03:54:24;;;;;;;20.38;14.63;;;359.00;2329.60;;;;;;5052318;28;20025;-54
2023/05/21 03:56:50;;;;;;;17.45;13.23;;;359.10;2329.60;;;;;;5052481;28;20025;-55
2023/05/21 03:59:15;;;;;;;13.18;11.52;;;359.30;2329.60;;;;;;5052457;28;20049;-55
2023/05/21 04:01:41;;;;;;;17.65;12.43;;;384.00;2329.60;;;;;;5052175;28;20029;-55
2023/05/21 04:04:07;;;;;;;18.52;12.95;;;384.20;2329.60;;;;;;5052639;28;21144;-55
2023/05/21 04:06:32;;;;;;;16.83;12.88;;;384.10;2329.60;;;;;;5052510;28;20025;-55
2023/05/21 04:08:58;;;;;;;15.07;12.43;;;384.40;2329.60;;;;;;5052341;28;20052;-55
2023/05/21 04:11:24;;;;;;;17.77;13.05;;;384.40;2329.60;;;;;;5052327;28;20378;-55
2023/05/21 04:13:50;;;;;;;14.98;12.70;;;384.50;2329.60;;;;;;5052061;28;20051;-55
2023/05/21 04:16:17;;;;;;;15.90;13.13;;;384.80;2329.60;;;;;;5052292;28;20050;-55
2023/05/21 04:18:44;;;;;;;18.02;14.00;;;384.90;2329.60;;;;;;5051997;28;20043;-55
2023/05/21 04:21:10;;;;;;;18.17;12.88;;;409.70;2355.20;;;;;;5051965;28;20037;-55
2023/05/21 04:23:36;;;;;;;14.73;11.82;;;409.90;2355.20;;;;;;5051799;28;20056;-55
2023/05/21 04:26:03;;;;;;;15.07;12.43;;;;;;;;;;5051691;28;20020;-55
2023/05/21 04:28:29;;;;;;;18.83;11.75;;;;;;;;;;5051991;28;20025;-55
2023/05/21 04:30:55;;;;;;;16.13;12.40;;;;;;;;;;5051906;28;20090;-54
2023/05/21 04:33:23;;;;;;;16.38;12.38;;;;;;;;;;5052274;28;20025;-55
2023/05/21 04:35:52;;;;;;;14.27;11.85;;;461.00;2380.80;;;;;;5051636;28;20040;-55
2023/05/21 04:38:18;;;;;;;15.52;10.88;;;461.00;2380.80;;;;;;5051736;28;20053;-55
2023/05/21 04:40:52;;;;;;;15.23;10.98;;;461.10;2380.80;;;;;;5051105;28;20148;-55
2023/05/21 04:43:24;;;;;;;;;;;461.10;2380.80;;;;;;5052163;28;20017;-68
2023/05/21 04:45:50;;;;;;;12.13;10.55;;;487.00;2380.80;;;;;;5051541;28;19905;-55
2023/05/21 04:48:16;;;;;;;12.50;10.30;;;614.50;2150.40;;;;;;5050972;28;20094;-55
2023/05/21 04:50:42;;;;;;;13.10;10.07;;;666.00;1868.80;;;;;;5051457;28;20025;-58
2023/05/21 04:53:08;;;;;;;15.25;10.98;;;717.40;1715.20;;;;;;5051235;28;20033;-56
2023/05/21 04:55:38;;;;;;;13.10;11.18;;;640.50;1843.20;;;;;;5051540;28;20055;-60
2023/05/21 04:58:09;;;;;;;10.93;9.85;;;717.40;1715.20;;;;;;5038261;28;20100;-55
2023/05/21 05:00:37;;;;;;;10.95;9.68;;;666.00;1792.00;;;;;;5051654;28;20037;-58
2023/05/21 05:03:03;;;;;;;15.07;12.10;;;615.20;1894.40;;;;;;5051015;28;20088;-56
2023/05/21 05:05:28;;;;;;;15.52;10.98;;;691.80;1766.40;;;;;;5051291;28;20033;-55
2023/05/21 05:07:56;;;;;;;13.38;11.25;;;768.50;1612.80;;;;;;5051171;28;20413;-56
2023/05/21 05:10:22;;;;;;;14.05;12.38;;;794.00;1561.60;;;;;;5050966;28;20024;-61
2023/05/21 05:12:47;;;;;;;15.55;12.32;;;820.00;1484.80;;;;;;5033270;28;20379;-57
2023/05/21 05:15:13;;;;;;;14.52;11.73;;;870.50;1408.00;;;;;;5051143;28;20542;-56
2023/05/21 05:17:39;;;;;;;13.35;12.05;;;870.50;1382.40;;;;;;5050997;28;20065;-56
2023/05/21 05:20:07;;;;;;;12.65;11.45;;;845.60;1408.00;;;;;;5051313;28;20044;-57
2023/05/21 05:22:32;;;;;;;19.52;13.43;;;819.50;1459.20;;;;;;5050733;28;20717;-55
2023/05/21 05:24:58;;;;;;;14.63;12.77;;;793.80;1484.80;;;;;;5038979;28;20033;-56
2023/05/21 05:27:24;;;;;;;14.23;12.80;;;870.70;1331.20;;;;;;5048961;28;20021;-56
2023/05/21 05:29:50;;;;;;;18.77;16.13;;;896.90;1280.00;;;;;;5050570;28;20064;-56
2023/05/21 05:32:16;;;;;;;21.60;18.40;;;921.80;1254.40;;;;;;5050878;28;20344;-58
2023/05/21 05:34:42;;;;;;;22.45;20.15;;;;;;;;;;5050584;28;20101;-56
2023/05/21 05:37:08;;;;;;;16.52;14.82;;;947.30;1203.20;;;;;;5050742;28;20024;-56
2023/05/21 05:39:34;;;;;;;16.05;13.85;;;973.70;1126.40;;;;;;5050603;28;20020;-56
2023/05/21 05:42:00;;;;;;;17.80;16.08;;;998.40;1152.00;;;;;;5050278;28;20029;-55
2023/05/21 05:44:26;;;;;;;16.33;14.85;;;973.60;1126.40;;;;;;5050620;28;20076;-56
2023/05/21 05:46:52;;;;;;;19.25;15.57;;;;;;;;;;5050241;28;20057;-58
2023/05/21 05:49:18;;;;;;;14.63;13.23;;;947.90;1152.00;;;;;;5050596;28;20017;-55
2023/05/21 05:51:43;;;;;;;16.10;13.93;;;870.70;1254.40;;;;;;5050201;28;20529;-58
2023/05/21 05:54:09;;;;;;;15.82;14.40;;;845.20;1331.20;;;;;;5050279;28;20036;-59
2023/05/21 05:56:35;;;;;;;16.17;13.35;;;922.50;1203.20;;;;;;5050082;28;20115;-56
2023/05/21 05:59:01;;;;;;;16.65;13.27;;;998.60;1126.40;;;;;;5049125;28;20029;-56
2023/05/21 06:01:26;;;;;;;17.00;15.45;;;1024.40;1075.20;;;;;;5050321;28;20057;-56
2023/05/21 06:03:52;;;;;;;16.70;14.93;;;1075.30;1024.00;;;;;;5032295;28;20037;-56
2023/05/21 06:06:18;;;;;;;17.17;13.57;;;1075.70;1024.00;;;;;;5049822;28;20041;-56
2023/05/21 06:08:45;;;;;;;14.45;13.25;;;1100.90;998.40;;;;;;5050288;28;20017;-65
2023/05/21 06:11:10;;;;;;;16.27;14.73;;;1101.70;972.80;;;;;;5049795;28;20071;-56
2023/05/21 06:13:36;;;;;;;14.32;13.02;;;1101.70;972.80;;;;;;5050497;28;20052;-56
2023/05/21 06:16:02;;;;;;;16.27;14.57;;;1126.70;972.80;;;;;;5049786;28;20494;-56
2023/05/21 06:18:28;;;;;;;14.80;13.35;;;1126.90;972.80;;;;;;5049758;28;20025;-56
2023/05/21 06:20:54;;;;;;;13.60;12.60;;;1075.50;998.40;;;;;;5050090;28;20033;-57
2023/05/21 06:23:20;;;;;;;15.52;14.23;;;1024.20;1049.60;;;;;;5039763;28;20052;-56
2023/05/21 06:25:45;;;;;;;12.88;11.77;;;1075.40;998.40;;;;;;5049564;28;20032;-63
2023/05/21 06:28:11;;;;;;;14.35;12.93;;;1050.40;1024.00;;;;;;5049854;28;20032;-57
2023/05/21 06:30:37;;;;;;;16.02;12.88;;;1126.40;972.80;;;;;;5050131;28;20481;-56
2023/05/21 06:33:02;;;;;;;15.02;13.10;;;1101.00;998.40;;;;;;5049539;28;20367;-59
2023/05/21 06:35:28;;;;;;;15.10;13.55;;;1075.50;972.80;;;;;;5049775;28;20056;-56
2023/05/21 06:37:54;;;;;;;13.43;12.15;;;1075.60;972.80;;;;;;5049731;28;20379;-59
2023/05/21 06:40:20;;;;;;;14.85;13.55;;;1101.70;972.80;;;;;;5048619;28;20483;-56
2023/05/21 06:42:46;;;;;;;15.38;13.75;;;1050.10;1024.00;;;;;;5049625;28;20025;-58
2023/05/21 06:45:11;;;;;;;18.23;16.55;;;1075.60;972.80;;;;;;5049294;28;20083;-56
2023/05/21 06:47:37;;;;;;;16.38;14.98;;;1049.70;1049.60;;;;;;5049627;28;20029;-57
2023/05/21 06:50:03;;;;;;;15.93;14.65;;;1024.40;1049.60;;;;;;5049417;28;20048;-56
2023/05/21 06:52:30;;;;;;;17.92;16.20;;;1075.60;972.80;;;;;;5049385;28;20029;-56
2023/05/21 06:54:56;;;;;;;18.33;16.35;;;1024.60;1024.00;;;;;;5049236;28;20068;-56
2023/05/21 06:57:21;;;;;;;15.68;14.38;;;1075.60;998.40;;;;;;5049440;28;20064;-56
2023/05/21 06:59:47;;;;;;;20.52;15.75;;;1101.70;972.80;;;;;;5048986;28;20536;-57
2023/05/21 07:02:13;;;;;;;17.83;15.15;;;1075.70;972.80;;;;;;5049326;28;20108;-56
2023/05/21 07:04:39;;;;;;;15.65;14.40;;;1049.90;1024.00;;;;;;5049140;28;20025;-62
2023/05/21 07:07:05;;;;;;;15.60;14.30;;;1101.60;972.80;;;;;;5049424;28;20029;-58
2023/05/21 07:09:31;;;;;;;15.52;14.20;;;1075.60;972.80;;;;;;5048626;28;20035;-57
2023/05/21 07:11:57;;;;;;;15.20;13.93;;;1126.80;972.80;;;;;;5049378;28;20017;-56
2023/05/21 07:14:24;;;;;;;13.63;12.43;;;1100.90;998.40;;;;;;5049219;28;20436;-56
2023/05/21 07:16:50;;;;;;;15.13;13.70;;;1101.10;972.80;;;;;;5049241;28;20028;-56
2023/05/21 07:19:15;;;;;;;15.77;14.40;;;1050.10;998.40;;;;;;5048595;28;20025;-57
2023/05/21 07:21:41;;;;;;;14.27;12.95;;;1050.00;998.40;;;;;;5048799;28;20883;-56
2023/05/21 07:24:07;;;;;;;14.98;13.57;;;1075.40;998.40;;;;;;5048675;28;20049;-56
2023/05/21 07:26:32;;;;;;;16.13;13.98;;;1050.30;998.40;;;;;;5048985;28;20159;-58
2023/05/21 07:28:58;;;;;;;15.45;14.10;;;1101.40;972.80;;;;;;5048713;28;20051;-56
2023/05/21 07:31:24;;;;;;;14.55;13.35;;;1050.40;998.40;;;;;;5049007;28;20374;-57
2023/05/21 07:33:50;;;;;;;14.75;13.55;;;1101.10;998.40;;;;;;5030663;28;20471;-56
2023/05/21 07:36:16;;;;;;;14.85;13.73;;;1101.60;972.80;;;;;;5048615;28;20029;-56
2023/05/21 07:38:43;;;;;;;15.77;14.48;;;1126.80;947.20;;;;;;5048704;28;20017;-56
2023/05/21 07:41:08;;;;;;;14.90;13.80;;;1050.40;998.40;;;;;;5048619;28;20037;-57
2023/05/21 07:43:35;;;;;;;14.50;13.40;;;1126.70;972.80;;;;;;5048393;28;20027;-57
2023/05/21 07:46:01;;;;;;;15.10;13.85;;;1126.70;972.80;;;;;;5048771;28;20420;-60
2023/05/21 07:48:26;;;;;;;14.93;13.63;;;1050.40;998.40;;;;;;5048680;28;20029;-56
2023/05/21 07:50:52;;;;;;;15.10;13.90;;;1050.10;998.40;;;;;;5048372;28;20550;-56
2023/05/21 07:53:18;;;;;;;14.63;13.18;;;1101.70;972.80;;;;;;5048432;28;20032;-57
2023/05/21 07:55:46;;;;;;;15.23;13.95;;;1101.70;972.80;;;;;;5048691;28;20021;-57
2023/05/21 07:58:17;;;;;;;15.10;13.90;;;1075.70;972.80;;;;;;5048385;28;20489;-57
2023/05/21 08:00:45;;;;;;;20.13;18.15;;;1075.20;998.40;;;;;;5048777;28;20494;-59
2023/05/21 08:03:15;;;;;;;13.57;12.60;;;1050.30;998.40;;;;;;5048147;28;20100;-56
2023/05/21 08:05:41;;;;;;;13.85;12.70;;;1050.20;998.40;;;;;;5048818;28;20119;-56
2023/05/21 08:08:07;;;;;;;12.57;11.57;;;1024.30;1024.00;;;;;;5048685;28;20092;-56
2023/05/21 08:10:33;;;;;;;14.38;13.05;;;1024.00;1049.60;;;;;;5048790;28;20033;-56
2023/05/21 08:12:58;;;;;;;14.57;13.07;;;998.60;1075.20;;;;;;5048343;28;20262;-56
2023/05/21 08:15:24;;;;;;;17.77;11.82;;;999.30;1049.60;;;;;;5048484;28;20387;-56
2023/05/21 08:17:50;;;;;;;15.23;12.63;;;;;;;;;;5048011;28;20063;-56
2023/05/21 08:20:16;;;;;;;11.93;10.70;;;845.70;1254.40;;;;;;5048445;28;20037;-55
2023/05/21 08:22:42;;;;;;;11.13;9.73;;;819.30;1331.20;;;;;;5050777;28;20055;-55
2023/05/21 08:25:08;;;;;;;10.43;9.40;;;794.20;1356.80;;;;;;5051967;28;20115;-55
2023/05/21 08:27:34;;;;;;;11.55;10.45;;;794.00;1382.40;;;;;;5052728;28;20071;-55
2023/05/21 08:29:59;;;;;;;11.93;9.70;;;768.10;1408.00;;;;;;5052283;28;20446;-56
2023/05/21 08:32:25;;;;;;;10.38;9.27;;;768.10;1459.20;;;;;;5051909;28;20074;-55
2023/05/21 08:34:51;;;;;;;13.23;9.88;;;742.40;1510.40;;;;;;5051737;28;20120;-56
2023/05/21 08:37:17;;;;;;;10.20;9.30;;;742.60;1484.80;;;;;;5052185;28;20025;-56
2023/05/21 08:39:43;;;;;;;11.32;9.15;;;743.10;1459.20;;;;;;5051845;28;20037;-59
2023/05/21 08:42:23;;;;;;;9.38;8.35;;;743.20;1459.20;;;;;;5051764;28;20021;-56
2023/05/21 08:44:52;;;;;;;11.75;10.30;;;742.50;1459.20;;;;;;5051503;28;20028;-56
2023/05/21 08:47:21;;;;;;;12.10;10.30;;;;;;;;;;5052006;28;20024;-55
2023/05/21 08:49:48;;;;;;;11.32;8.85;;;717.30;1510.40;;;;;;5051019;28;20375;-56
2023/05/21 08:52:14;;;;;;;11.07;9.18;;;717.50;1510.40;;;;;;5051593;28;20028;-55
2023/05/21 08:54:42;;;;;;;19.77;9.52;;;716.80;1536.00;;;;;;5051787;28;20036;-56
2023/05/21 08:57:09;;;;;;;10.27;8.93;;;717.00;1536.00;;;;;;5051588;28;20467;-54
2023/05/21 08:59:36;;;;;;;10.23;9.23;;;717.50;1510.40;;;;;;5051557;28;20041;-55
2023/05/21 09:02:03;;;;;;;11.80;9.45;;;717.20;1510.40;;;;;;5051535;28;20101;-55
2023/05/21 09:04:31;;;;;;;8.98;7.75;;;691.80;1510.40;;;;;;5051076;28;20017;-55
2023/05/21 09:06:58;;;;;;;10.55;8.63;;;716.80;1561.60;;;;;;5051612;28;20025;-55
2023/05/21 09:09:38;;;;;;;10.10;9.10;;;691.90;1561.60;;;;;;5051023;28;20517;-55
2023/05/21 09:12:04;;;;;;;12.23;9.38;;;716.80;1561.60;;;;;;5051364;28;20037;-55
2023/05/21 09:14:31;;;;;;;11.52;8.93;;;692.00;1536.00;;;;;;5050999;28;20020;-55
2023/05/21 09:16:56;;;;;;;11.68;8.35;;;691.90;1536.00;;;;;;5051374;28;20100;-53
2023/05/21 09:19:22;;;;;;;12.63;9.82;;;691.90;1536.00;;;;;;5050594;28;20486;-55
2023/05/21 09:21:51;;;;;;;11.32;9.18;;;691.70;1561.60;;;;;;5051157;28;20029;-56
2023/05/21 09:24:20;;;;;;;10.10;9.10;;;692.10;1587.20;;;;;;5051248;28;20041;-55
2023/05/21 09:26:45;;;;;;;9.98;8.38;;;717.00;1561.60;;;;;;5051124;28;20029;-55
2023/05/21 09:29:12;;;;;;;11.18;9.10;;;691.90;1536.00;;;;;;5050770;28;20589;-56
2023/05/21 09:31:43;;;;;;;9.77;8.82;;;692.10;1536.00;;;;;;5051073;28;20475;-55
2023/05/21 09:34:09;;;;;;;12.73;8.90;;;692.10;1561.60;;;;;;5050518;28;20044;-56
2023/05/21 09:36:37;;;;;;;10.68;8.55;;;692.10;1536.00;;;;;;5050983;28;20021;-55
2023/05/21 09:39:03;;;;;;;10.20;8.57;;;692.00;1561.60;;;;;;5050332;28;20471;-56
2023/05/21 09:41:34;;;;;;;12.52;8.38;;;692.10;1561.60;;;;;;5050732;28;20091;-55
2023/05/21 09:44:00;;;;;;;10.88;8.80;;;691.70;1561.60;;;;;;5032264;28;20032;-56
2023/05/21 09:46:26;;;;;;;11.55;8.38;;;691.60;1561.60;;;;;;5050674;28;20033;-55
2023/05/21 09:48:52;;;;;;;12.60;8.82;;;692.10;1510.40;;;;;;5050405;28;20075;-57
2023/05/21 09:51:20;;;;;;;9.75;8.60;;;691.40;1536.00;;;;;;5050440;28;20029;-55
2023/05/21 09:53:58;;;;;;;10.45;8.07;;;691.80;1536.00;;;;;;5050269;28;20503;-58
2023/05/21 09:56:28;;;;;;;10.80;8.27;;;691.70;1510.40;;;;;;5050084;28;20563;-55
2023/05/21 09:58:55;;;;;;;11.88;8.77;;;691.60;1510.40;;;;;;5050076;28;20558;-56
2023/05/21 10:01:23;;;;;;;9.70;7.32;;;691.70;1536.00;;;;;;5049666;28;20442;-55
2023/05/21 10:03:57;;;;;;;10.20;8.40;;;691.20;1536.00;;;;;;5050066;28;20073;-56
2023/05/21 10:06:28;;;;;;;13.25;7.55;;;691.20;1561.60;;;;;;5049821;28;20071;-56
2023/05/21 10:08:55;;;;;;;9.63;7.43;;;691.80;1510.40;;;;;;5050292;28;20437;-57
2023/05/21 10:11:30;;;;;;;10.07;7.38;;;691.70;1484.80;;;;;;5049646;28;20029;-59
2023/05/21 10:14:18;;;;;;;9.80;8.20;;;691.70;1459.20;;;;;;5050102;28;20029;-55
2023/05/21 10:16:45;;;;;;;17.55;8.20;;;717.10;1459.20;;;;;;5050282;28;20025;-55
2023/05/21 10:19:13;;;;;;;11.82;6.78;;;717.20;1459.20;;;;;;5049739;28;20031;-55
2023/05/21 10:21:39;;;;;;;9.55;7.25;;;717.40;1433.60;;;;;;5050371;28;20029;-56
2023/05/21 10:24:08;;;;;;;10.30;7.40;;;717.40;1433.60;;;;;;5049521;28;20053;-55
2023/05/21 10:26:34;;;;;;;9.90;7.85;;;717.30;1433.60;;;;;;5049998;28;20072;-55
2023/05/21 10:29:01;;;;;;;9.85;7.25;;;717.00;1459.20;;;;;;5049419;28;20502;-56
2023/05/21 10:31:28;;;;;;;12.02;7.00;;;692.00;1459.20;;;;;;5049889;28;20017;-58
2023/05/21 10:33:54;;;;;;;10.98;7.43;;;691.90;1459.20;;;;;;5049460;28;20378;-53
2023/05/21 10:36:22;;;;;;;10.15;7.68;;;692.00;1459.20;;;;;;5049697;28;20032;-56
2023/05/21 10:38:48;;;;;;;8.77;7.47;;;692.10;1484.80;;;;;;5049408;28;20469;-56
2023/05/21 10:41:20;;;;;;;9.23;7.80;;;692.10;1459.20;;;;;;5049513;28;20043;-57
2023/05/21 10:44:01;;;;;;;13.32;7.63;;;691.90;1484.80;;;;;;5049669;28;20028;-55
2023/05/21 10:47:02;;;;;;;11.45;7.57;;;716.90;1484.80;;;;;;5049098;28;20056;-56
2023/05/21 10:49:46;;;;;;;15.85;7.75;;;716.90;1484.80;;;;;;5049245;28;20013;-55
2023/05/21 10:52:18;;;;;;;10.18;8.02;;;717.10;1459.20;;;;;;5048932;28;20025;-56
2023/05/21 10:55:22;;;;;;;8.27;7.10;;;717.20;1459.20;;;;;;5049585;28;20051;-54
2023/05/21 10:58:06;;;;;;;11.70;8.25;;;716.80;1459.20;;;;;;5027659;28;20103;-55
2023/05/21 11:00:32;;;;;;;10.88;7.47;;;691.90;1459.20;;;;;;5038213;28;20077;-54
2023/05/21 11:02:59;;;;;;;12.80;8.27;;;691.50;1510.40;;;;;;5048845;28;20033;-54
2023/05/21 11:05:54;;;;;;;9.77;8.35;;;691.40;1510.40;;;;;;5049460;28;20029;-55
2023/05/21 11:08:21;;;;;;;12.73;7.85;;;691.40;1510.40;;;;;;5049169;28;20109;-54
2023/05/21 11:10:57;;;;;;;9.88;8.80;;;691.20;1510.40;;;;;;5049136;28;20025;-59
2023/05/21 11:13:25;;;;;;;67.32;15.15;;;691.20;1536.00;;;;;;5049299;28;20024;-59
2023/05/21 11:15:57;;;;;;;10.13;8.30;;;691.50;1536.00;;;;;;5049355;28;20033;-54
2023/05/21 11:18:36;;;;;;;14.15;8.43;;;691.70;1510.40;;;;;;5048783;28;20079;-54
2023/05/21 11:21:05;;;;;;;8.93;7.57;;;691.40;1510.40;;;;;;5048843;28;20072;-55
2023/05/21 11:23:49;;;;;;;14.27;8.75;;;691.50;1484.80;;;;;;5048494;28;20537;-55
2023/05/21 11:26:16;;;;;;;9.88;8.10;;;691.90;1484.80;;;;;;5036523;28;20043;-55
2023/05/21 11:28:42;;;;;;;8.38;7.45;;;691.60;1459.20;;;;;;5031054;28;20059;-56
2023/05/21 11:31:28;;;;;;;11.23;8.32;;;691.50;1484.80;;;;;;5048924;28;20020;-55
2023/05/21 11:34:28;;;;;;;14.30;7.80;;;691.30;1484.80;;;;;;5048944;28;20025;-62
2023/05/21 11:37:40;;;;;;;11.43;8.00;;;691.60;1484.80;;;;;;5030788;28;20064;-55
2023/05/21 11:40:29;;;;;;;10.15;8.30;;;691.90;1484.80;;;;;;5047607;28;20057;-55
2023/05/21 11:42:55;;;;;;;10.02;8.40;;;716.80;1459.20;;;;;;5048709;28;20475;-55
2023/05/21 11:45:26;;;;;;;12.80;8.32;;;692.10;1433.60;;;;;;5044099;28;20029;-55
2023/05/21 11:47:53;;;;;;;15.05;9.05;;;691.90;1433.60;;;;;;5040441;28;20037;-55
2023/05/21 11:50:20;;;;;;;14.35;8.30;;;691.70;1484.80;;;;;;5048012;28;20044;-54
2023/05/21 11:52:46;;;;;;;17.27;8.02;;;691.70;1484.80;;;;;;5048879;28;20423;-55
2023/05/21 11:55:14;;;;;;;13.00;8.02;;;691.90;1484.80;;;;;;5048162;28;20017;-55
2023/05/21 11:57:41;;;;;;;12.45;8.15;;;717.10;1484.80;;;;;;5050839;28;20020;-55
2023/05/21 12:00:14;;;;;;;12.52;8.90;;;717.70;1459.20;;;;;;5052562;28;20098;-56
2023/05/21 12:02:51;;;;;;;20.13;9.00;;;742.50;1433.60;;;;;;5052449;28;20098;-55
2023/05/21 12:05:17;;;;;;;13.13;8.80;;;717.40;1459.20;;;;;;5041056;28;20094;-55
2023/05/21 12:07:47;;;;;;;11.50;8.57;;;717.70;1433.60;;;;;;5052505;28;20459;-55
2023/05/21 12:10:13;;;;;;;11.13;8.52;;;717.40;1433.60;;;;;;5052314;28;20025;-55
2023/05/21 12:12:39;;;;;;;10.43;9.02;;;742.40;1459.20;;;;;;5052225;28;20025;-55
2023/05/21 12:15:06;;;;;;;17.25;9.63;;;717.70;1433.60;;;;;;5052909;28;20060;-55
2023/05/21 12:17:31;;;;;;;11.88;7.72;;;717.10;1510.40;;;;;;5052206;28;20032;-57
2023/05/21 12:19:57;;;;;;;10.95;7.78;;;716.90;1510.40;;;;;;5052207;28;20021;-56
2023/05/21 12:22:26;;;;;;;9.18;7.28;;;717.00;1510.40;;;;;;5052075;28;20053;-55
2023/05/21 12:24:52;;;;;;;10.95;7.68;;;692.10;1510.40;;;;;;5051976;28;20550;-55
2023/05/21 12:27:20;;;;;;;11.55;6.97;;;716.80;1536.00;;;;;;5051531;28;20033;-55
2023/05/21 12:29:48;;;;;;;13.98;7.43;;;691.90;1484.80;;;;;;5052333;28;20056;-55